Map

Track Data

SID SEASON NUMBER BASIN SUBBASIN NAME ISO_TIME NATURE LAT LON WMO_WIND WMO_PRES WMO_AGENCY TRACK_TYPE DIST2LAND LANDFALL IFLAG USA_AGENCY USA_ATCF_ID USA_LAT USA_LON USA_RECORD USA_STATUS USA_WIND USA_PRES USA_SSHS USA_R34_NE USA_R34_SE USA_R34_SW USA_R34_NW USA_R50_NE USA_R50_SE USA_R50_SW USA_R50_NW USA_R64_NE USA_R64_SE USA_R64_SW USA_R64_NW USA_POCI USA_ROCI USA_RMW USA_EYE TOKYO_LAT TOKYO_LON TOKYO_GRADE TOKYO_WIND TOKYO_PRES TOKYO_R50_DIR TOKYO_R50_LONG TOKYO_R50_SHORT TOKYO_R30_DIR TOKYO_R30_LONG TOKYO_R30_SHORT TOKYO_LAND CMA_LAT CMA_LON CMA_CAT CMA_WIND CMA_PRES HKO_LAT HKO_LON HKO_CAT HKO_WIND HKO_PRES NEWDELHI_LAT NEWDELHI_LON NEWDELHI_GRADE NEWDELHI_WIND NEWDELHI_PRES NEWDELHI_CI NEWDELHI_DP NEWDELHI_POCI REUNION_LAT REUNION_LON REUNION_TYPE REUNION_WIND REUNION_PRES REUNION_TNUM REUNION_CI REUNION_RMW REUNION_R34_NE REUNION_R34_SE REUNION_R34_SW REUNION_R34_NW REUNION_R50_NE REUNION_R50_SE REUNION_R50_SW REUNION_R50_NW REUNION_R64_NE REUNION_R64_SE REUNION_R64_SW REUNION_R64_NW BOM_LAT BOM_LON BOM_TYPE BOM_WIND BOM_PRES BOM_TNUM BOM_CI BOM_RMW BOM_R34_NE BOM_R34_SE BOM_R34_SW BOM_R34_NW BOM_R50_NE BOM_R50_SE BOM_R50_SW BOM_R50_NW BOM_R64_NE BOM_R64_SE BOM_R64_SW BOM_R64_NW BOM_ROCI BOM_POCI BOM_EYE BOM_POS_METHOD BOM_PRES_METHOD NADI_LAT NADI_LON NADI_CAT NADI_WIND NADI_PRES WELLINGTON_LAT WELLINGTON_LON WELLINGTON_WIND WELLINGTON_PRES DS824_LAT DS824_LON DS824_STAGE DS824_WIND DS824_PRES TD9636_LAT TD9636_LON TD9636_STAGE TD9636_WIND TD9636_PRES TD9635_LAT TD9635_LON TD9635_WIND TD9635_PRES TD9635_ROCI NEUMANN_LAT NEUMANN_LON NEUMANN_CLASS NEUMANN_WIND NEUMANN_PRES MLC_LAT MLC_LON MLC_CLASS MLC_WIND MLC_PRES USA_GUST BOM_GUST BOM_GUST_PER REUNION_GUST REUNION_GUST_PER USA_SEAHGT USA_SEARAD_NE USA_SEARAD_SE USA_SEARAD_SW USA_SEARAD_NW STORM_SPEED STORM_DIR
1868193N13303 1868 10 NA NA NOT_NAMED 1868-07-10 12:00:00 TS 12.5000 -57.5000 main 431 385 _____________O -1 12.5000 -57.5000 TD 30 15 298
1868193N13303 1868 10 NA NA NOT_NAMED 1868-07-10 15:00:00 TS 12.8604 -58.1996 main 392 360 _____________P -1 12.8604 -58.1996 TD 30 15 297
1868193N13303 1868 10 NA NA NOT_NAMED 1868-07-10 18:00:00 TS 13.2000 -58.9000 main 361 348 _____________O -1 13.2000 -58.9000 TD 30 15 295
1868193N13303 1868 10 NA CS NOT_NAMED 1868-07-10 21:00:00 TS 13.5073 -59.6002 main 348 343 _____________P -1 13.5073 -59.6002 TD 30 15 294
1868193N13303 1868 10 NA CS NOT_NAMED 1868-07-11 00:00:00 TS 13.8000 -60.3000 main 355 353 _____________O -1 13.8000 -60.3000 TD 30 15 293
1868193N13303 1868 10 NA CS NOT_NAMED 1868-07-11 03:00:00 TS 14.0999 -61.0076 main 380 380 _____________P -1 14.0999 -61.0076 TD 32 15 294
1868193N13303 1868 10 NA CS NOT_NAMED 1868-07-11 06:00:00 TS 14.4000 -61.7000 main 414 414 _____________O -1 14.4000 -61.7000 TS 35 14 295
1868193N13303 1868 10 NA CS NOT_NAMED 1868-07-11 09:00:00 TS 14.7147 -62.3501 main 447 447 _____________P -1 14.7147 -62.3501 TS 35 14 296
1868193N13303 1868 10 NA CS NOT_NAMED 1868-07-11 12:00:00 TS 15.0000 -63.0000 main 449 385 _____________O -1 15.0000 -63.0000 TS 35 14 291
1868193N13303 1868 10 NA CS NOT_NAMED 1868-07-11 15:00:00 TS 15.2148 -63.6927 main 385 326 _____________P -1 15.2148 -63.6927 TS 35 14 286
1868193N13303 1868 10 NA CS NOT_NAMED 1868-07-11 18:00:00 TS 15.4000 -64.4000 main 326 278 _____________O -1 15.4000 -64.4000 TS 35 14 286
1868193N13303 1868 10 NA CS NOT_NAMED 1868-07-11 21:00:00 TS 15.5998 -65.1001 main 278 238 _____________P -1 15.5998 -65.1001 TS 35 14 287
1868193N13303 1868 10 NA CS NOT_NAMED 1868-07-12 00:00:00 TS 15.8000 -65.8000 main 238 212 _____________O -1 15.8000 -65.8000 TS 35 14 287
1868193N13303 1868 10 NA CS NOT_NAMED 1868-07-12 03:00:00 TS 16.0073 -66.5075 main 215 190 _____________P -1 16.0073 -66.5075 TS 35 14 287
1868193N13303 1868 10 NA CS NOT_NAMED 1868-07-12 06:00:00 TS 16.2000 -67.2000 main 190 181 _____________O -1 16.2000 -67.2000 TS 35 14 284
1868193N13303 1868 10 NA CS NOT_NAMED 1868-07-12 09:00:00 TS 16.3275 -67.8878 main 193 188 _____________P -1 16.3275 -67.8878 TS 35 13 284
1868193N13303 1868 10 NA CS NOT_NAMED 1868-07-12 12:00:00 TS 16.5000 -68.5000 main 190 157 _____________O -1 16.5000 -68.5000 TS 35 12 295
1868193N13303 1868 10 NA CS NOT_NAMED 1868-07-12 15:00:00 TS 16.8272 -68.9800 main 158 128 _____________P -1 16.8272 -68.9800 TS 35 11 309
1868193N13303 1868 10 NA CS NOT_NAMED 1868-07-12 18:00:00 TS 17.2000 -69.4000 main 128 89 _____________O -1 17.2000 -69.4000 TS 35 11 309
1868193N13303 1868 10 NA CS NOT_NAMED 1868-07-12 21:00:00 TS 17.5074 -69.8502 main 84 44 _____________P -1 17.5074 -69.8502 TS 35 11 305
1868193N13303 1868 10 NA CS NOT_NAMED 1868-07-13 00:00:00 TS 17.8000 -70.3000 main 44 23 _____________O -1 17.8000 -70.3000 TS 35 11 304
1868193N13303 1868 10 NA CS NOT_NAMED 1868-07-13 03:00:00 TS 18.0999 -70.7576 main 24 0 _____________P -1 18.0999 -70.7576 TS 32 10 305
1868193N13303 1868 10 NA NA NOT_NAMED 1868-07-13 06:00:00 TS 18.4000 -71.2000 main 0 0 _____________O -1 18.4000 -71.2000 TD 30 10 307
1868193N13303 1868 10 NA NA NOT_NAMED 1868-07-13 09:00:00 TS 18.7001 -71.6097 main 0 0 _____________P -1 18.7001 -71.6097 TD 27 10 308
1868193N13303 1868 10 NA NA NOT_NAMED 1868-07-13 12:00:00 ET 19.0000 -72.0000 main 0 _____________O -1 19.0000 -72.0000 EX 25 10 309

About IBTrACS Database

This database is a web-friendly format of International Best Track Archive for Climate Stewardship (IBTrACS), a global best track data archive curated by NOAA dating back to 1842.

Updated: 2021-10-25